sensor_id;sensor_type;location;lat;lon;timestamp;P1;durP1;ratioP1;P2;durP2;ratioP2
11877;SDS011;5998;42.676;23.268;2023-02-08T03:15:22;28.43;;;16.57;;
11877;SDS011;5998;42.676;23.268;2023-02-08T03:17:58;44.23;;;15.27;;
11877;SDS011;5998;42.676;23.268;2023-02-08T03:20:31;21.63;;;13.60;;
11877;SDS011;5998;42.676;23.268;2023-02-08T03:23:05;24.07;;;13.43;;
11877;SDS011;5998;42.676;23.268;2023-02-08T03:25:38;23.83;;;13.97;;
11877;SDS011;5998;42.676;23.268;2023-02-08T03:28:16;23.73;;;14.23;;
11877;SDS011;5998;42.676;23.268;2023-02-08T03:30:52;26.37;;;13.63;;
11877;SDS011;5998;42.676;23.268;2023-02-08T03:33:27;23.57;;;13.33;;
11877;SDS011;5998;42.676;23.268;2023-02-08T03:36:01;19.43;;;12.33;;
11877;SDS011;5998;42.676;23.268;2023-02-08T03:38:31;21.13;;;13.40;;
11877;SDS011;5998;42.676;23.268;2023-02-08T03:41:03;18.87;;;12.53;;
11877;SDS011;5998;42.676;23.268;2023-02-08T03:43:34;21.67;;;13.63;;
11877;SDS011;5998;42.676;23.268;2023-02-08T03:46:07;23.97;;;14.27;;
11877;SDS011;5998;42.676;23.268;2023-02-08T03:48:39;37.97;;;13.87;;
11877;SDS011;5998;42.676;23.268;2023-02-08T03:51:11;20.63;;;12.87;;
11877;SDS011;5998;42.676;23.268;2023-02-08T03:53:39;26.23;;;13.60;;
11877;SDS011;5998;42.676;23.268;2023-02-08T03:56:11;24.33;;;13.97;;
11877;SDS011;5998;42.676;23.268;2023-02-08T03:58:44;22.77;;;14.43;;
11877;SDS011;5998;42.676;23.268;2023-02-08T04:01:16;27.77;;;14.40;;
11877;SDS011;5998;42.676;23.268;2023-02-08T04:03:48;42.10;;;15.07;;
11877;SDS011;5998;42.676;23.268;2023-02-08T04:06:18;20.07;;;12.83;;
11877;SDS011;5998;42.676;23.268;2023-02-08T04:08:45;24.57;;;14.70;;
11877;SDS011;5998;42.676;23.268;2023-02-08T04:11:12;23.33;;;14.70;;
11877;SDS011;5998;42.676;23.268;2023-02-08T04:13:39;26.13;;;15.30;;
11877;SDS011;5998;42.676;23.268;2023-02-08T04:16:06;27.87;;;16.03;;
11877;SDS011;5998;42.676;23.268;2023-02-08T04:18:36;26.03;;;15.67;;
11877;SDS011;5998;42.676;23.268;2023-02-08T04:21:02;22.77;;;14.20;;
11877;SDS011;5998;42.676;23.268;2023-02-08T04:23:29;21.67;;;14.10;;
11877;SDS011;5998;42.676;23.268;2023-02-08T04:25:56;23.53;;;13.50;;
11877;SDS011;5998;42.676;23.268;2023-02-08T04:28:23;27.27;;;15.70;;
11877;SDS011;5998;42.676;23.268;2023-02-08T04:30:49;29.90;;;16.23;;
11877;SDS011;5998;42.676;23.268;2023-02-08T04:33:16;25.10;;;14.83;;
11877;SDS011;5998;42.676;23.268;2023-02-08T04:35:44;26.63;;;16.03;;
11877;SDS011;5998;42.676;23.268;2023-02-08T04:38:11;24.63;;;15.37;;
11877;SDS011;5998;42.676;23.268;2023-02-08T04:40:37;28.73;;;14.80;;
11877;SDS011;5998;42.676;23.268;2023-02-08T04:43:04;27.17;;;14.93;;
11877;SDS011;5998;42.676;23.268;2023-02-08T04:45:31;23.30;;;14.13;;
11877;SDS011;5998;42.676;23.268;2023-02-08T04:47:59;22.70;;;14.80;;
11877;SDS011;5998;42.676;23.268;2023-02-08T04:50:26;24.80;;;15.20;;
11877;SDS011;5998;42.676;23.268;2023-02-08T04:52:54;94.37;;;50.77;;
11877;SDS011;5998;42.676;23.268;2023-02-08T04:55:21;52.33;;;30.17;;
11877;SDS011;5998;42.676;23.268;2023-02-08T04:57:47;93.00;;;21.20;;
11877;SDS011;5998;42.676;23.268;2023-02-08T05:00:14;53.40;;;16.63;;
11877;SDS011;5998;42.676;23.268;2023-02-08T05:02:42;29.97;;;16.57;;
11877;SDS011;5998;42.676;23.268;2023-02-08T05:05:08;31.83;;;18.73;;
11877;SDS011;5998;42.676;23.268;2023-02-08T05:07:35;30.73;;;18.77;;
11877;SDS011;5998;42.676;23.268;2023-02-08T05:10:04;34.50;;;19.43;;
11877;SDS011;5998;42.676;23.268;2023-02-08T05:12:31;33.20;;;17.97;;
11877;SDS011;5998;42.676;23.268;2023-02-08T05:14:57;37.47;;;21.23;;
11877;SDS011;5998;42.676;23.268;2023-02-08T05:17:24;38.97;;;20.43;;
11877;SDS011;5998;42.676;23.268;2023-02-08T05:19:51;35.40;;;19.03;;
11877;SDS011;5998;42.676;23.268;2023-02-08T05:22:17;44.20;;;23.33;;
11877;SDS011;5998;42.676;23.268;2023-02-08T05:24:44;42.67;;;20.17;;
11877;SDS011;5998;42.676;23.268;2023-02-08T05:27:12;53.53;;;29.77;;
11877;SDS011;5998;42.676;23.268;2023-02-08T05:29:39;42.27;;;25.07;;
11877;SDS011;5998;42.676;23.268;2023-02-08T05:32:07;37.50;;;23.60;;
11877;SDS011;5998;42.676;23.268;2023-02-08T05:34:33;36.13;;;22.27;;
11877;SDS011;5998;42.676;23.268;2023-02-08T05:37:02;41.60;;;22.33;;
11877;SDS011;5998;42.676;23.268;2023-02-08T05:39:28;37.67;;;25.87;;
11877;SDS011;5998;42.676;23.268;2023-02-08T05:41:55;43.47;;;22.93;;
11877;SDS011;5998;42.676;23.268;2023-02-08T05:44:23;52.77;;;25.43;;
11877;SDS011;5998;42.676;23.268;2023-02-08T05:46:50;37.07;;;21.97;;
11877;SDS011;5998;42.676;23.268;2023-02-08T05:49:16;39.23;;;24.27;;
11877;SDS011;5998;42.676;23.268;2023-02-08T05:51:43;67.10;;;22.87;;
11877;SDS011;5998;42.676;23.268;2023-02-08T05:54:10;38.53;;;22.83;;
11877;SDS011;5998;42.676;23.268;2023-02-08T05:56:36;40.83;;;22.63;;
11877;SDS011;5998;42.676;23.268;2023-02-08T05:59:03;36.00;;;21.43;;
11877;SDS011;5998;42.676;23.268;2023-02-08T06:01:31;45.30;;;25.37;;
11877;SDS011;5998;42.676;23.268;2023-02-08T06:03:58;44.80;;;24.53;;
11877;SDS011;5998;42.676;23.268;2023-02-08T06:06:25;44.80;;;26.87;;
11877;SDS011;5998;42.676;23.268;2023-02-08T06:08:52;42.20;;;24.87;;
11877;SDS011;5998;42.676;23.268;2023-02-08T06:11:18;43.10;;;26.03;;
11877;SDS011;5998;42.676;23.268;2023-02-08T06:13:45;47.50;;;26.63;;
11877;SDS011;5998;42.676;23.268;2023-02-08T06:16:13;46.00;;;26.17;;
11877;SDS011;5998;42.676;23.268;2023-02-08T06:18:42;47.97;;;27.57;;
11877;SDS011;5998;42.676;23.268;2023-02-08T06:21:08;60.60;;;29.53;;
11877;SDS011;5998;42.676;23.268;2023-02-08T06:23:36;44.47;;;24.63;;
11877;SDS011;5998;42.676;23.268;2023-02-08T06:26:03;28.53;;;17.20;;
11877;SDS011;5998;42.676;23.268;2023-02-08T06:28:30;36.33;;;19.03;;
11877;SDS011;5998;42.676;23.268;2023-02-08T06:30:57;30.03;;;16.43;;
11877;SDS011;5998;42.676;23.268;2023-02-08T06:33:23;26.13;;;14.57;;
11877;SDS011;5998;42.676;23.268;2023-02-08T06:35:51;29.20;;;15.70;;
11877;SDS011;5998;42.676;23.268;2023-02-08T06:38:19;24.77;;;14.77;;
11877;SDS011;5998;42.676;23.268;2023-02-08T06:40:46;24.63;;;14.63;;
11877;SDS011;5998;42.676;23.268;2023-02-08T06:43:13;18.80;;;11.67;;
11877;SDS011;5998;42.676;23.268;2023-02-08T06:45:40;22.30;;;13.50;;
11877;SDS011;5998;42.676;23.268;2023-02-08T06:48:09;20.23;;;12.27;;
11877;SDS011;5998;42.676;23.268;2023-02-08T06:50:36;20.77;;;13.77;;
11877;SDS011;5998;42.676;23.268;2023-02-08T06:53:04;17.97;;;10.50;;
11877;SDS011;5998;42.676;23.268;2023-02-08T06:55:31;20.77;;;11.43;;
11877;SDS011;5998;42.676;23.268;2023-02-08T06:57:57;18.80;;;11.63;;
11877;SDS011;5998;42.676;23.268;2023-02-08T07:00:24;19.10;;;12.27;;
11877;SDS011;5998;42.676;23.268;2023-02-08T07:02:51;35.27;;;13.80;;
11877;SDS011;5998;42.676;23.268;2023-02-08T07:05:18;20.27;;;11.90;;
11877;SDS011;5998;42.676;23.268;2023-02-08T07:07:46;20.07;;;12.43;;
11877;SDS011;5998;42.676;23.268;2023-02-08T07:10:15;14.97;;;8.00;;
11877;SDS011;5998;42.676;23.268;2023-02-08T07:12:42;20.67;;;12.60;;
11877;SDS011;5998;42.676;23.268;2023-02-08T07:15:08;17.93;;;10.63;;
11877;SDS011;5998;42.676;23.268;2023-02-08T07:17:37;20.13;;;11.30;;
11877;SDS011;5998;42.676;23.268;2023-02-08T07:20:04;20.03;;;11.50;;
11877;SDS011;5998;42.676;23.268;2023-02-08T07:22:31;19.10;;;11.23;;
11877;SDS011;5998;42.676;23.268;2023-02-08T07:24:58;19.70;;;12.33;;
11877;SDS011;5998;42.676;23.268;2023-02-08T07:27:26;23.80;;;13.57;;
11877;SDS011;5998;42.676;23.268;2023-02-08T07:29:53;23.80;;;13.03;;
11877;SDS011;5998;42.676;23.268;2023-02-08T07:32:20;19.20;;;11.60;;
11877;SDS011;5998;42.676;23.268;2023-02-08T07:34:47;23.93;;;13.17;;
11877;SDS011;5998;42.676;23.268;2023-02-08T07:37:13;9.67;;;7.00;;
11877;SDS011;5998;42.676;23.268;2023-02-08T07:39:40;15.93;;;9.90;;
11877;SDS011;5998;42.676;23.268;2023-02-08T07:42:07;13.97;;;8.03;;
11877;SDS011;5998;42.676;23.268;2023-02-08T07:44:36;13.17;;;7.67;;
11877;SDS011;5998;42.676;23.268;2023-02-08T07:47:03;12.00;;;7.27;;
11877;SDS011;5998;42.676;23.268;2023-02-08T07:49:30;14.20;;;8.70;;
11877;SDS011;5998;42.676;23.268;2023-02-08T07:51:57;15.33;;;9.80;;
11877;SDS011;5998;42.676;23.268;2023-02-08T07:54:24;14.37;;;8.17;;
11877;SDS011;5998;42.676;23.268;2023-02-08T07:56:51;16.77;;;9.77;;
11877;SDS011;5998;42.676;23.268;2023-02-08T07:59:18;15.67;;;9.97;;
11877;SDS011;5998;42.676;23.268;2023-02-08T08:01:46;17.50;;;10.63;;
11877;SDS011;5998;42.676;23.268;2023-02-08T08:04:13;19.73;;;11.00;;
11877;SDS011;5998;42.676;23.268;2023-02-08T08:06:40;18.97;;;11.60;;
11877;SDS011;5998;42.676;23.268;2023-02-08T08:09:07;24.07;;;11.97;;
11877;SDS011;5998;42.676;23.268;2023-02-08T08:11:33;20.53;;;11.73;;
11877;SDS011;5998;42.676;23.268;2023-02-08T08:14:00;23.73;;;13.67;;
11877;SDS011;5998;42.676;23.268;2023-02-08T08:16:27;25.60;;;14.80;;
11877;SDS011;5998;42.676;23.268;2023-02-08T08:18:55;15.60;;;9.97;;
11877;SDS011;5998;42.676;23.268;2023-02-08T08:21:22;24.77;;;13.97;;
11877;SDS011;5998;42.676;23.268;2023-02-08T08:23:49;23.57;;;12.93;;
11877;SDS011;5998;42.676;23.268;2023-02-08T14:04:35;6.47;;;4.17;;
11877;SDS011;5998;42.676;23.268;2023-02-08T14:07:15;4.80;;;3.43;;
11877;SDS011;5998;42.676;23.268;2023-02-08T14:10:07;13.70;;;7.00;;
11877;SDS011;5998;42.676;23.268;2023-02-08T14:12:44;7.83;;;5.17;;
11877;SDS011;5998;42.676;23.268;2023-02-08T14:15:23;6.07;;;4.47;;
11877;SDS011;5998;42.676;23.268;2023-02-08T14:17:57;5.60;;;2.90;;
11877;SDS011;5998;42.676;23.268;2023-02-08T14:20:28;11.47;;;6.00;;
11877;SDS011;5998;42.676;23.268;2023-02-08T14:22:58;4.53;;;3.73;;
11877;SDS011;5998;42.676;23.268;2023-02-08T14:25:28;4.30;;;3.07;;
11877;SDS011;5998;42.676;23.268;2023-02-08T14:28:03;4.40;;;3.73;;
11877;SDS011;5998;42.676;23.268;2023-02-08T14:30:32;7.80;;;5.07;;
11877;SDS011;5998;42.676;23.268;2023-02-08T14:33:08;3.60;;;2.73;;
11877;SDS011;5998;42.676;23.268;2023-02-08T14:35:48;3.80;;;2.63;;
11877;SDS011;5998;42.676;23.268;2023-02-08T14:38:48;13.50;;;5.87;;
11877;SDS011;5998;42.676;23.268;2023-02-08T14:50:18;7.03;;;5.10;;
11877;SDS011;5998;42.676;23.268;2023-02-08T14:52:50;5.57;;;4.20;;
11877;SDS011;5998;42.676;23.268;2023-02-08T14:55:22;10.50;;;6.20;;
11877;SDS011;5998;42.676;23.268;2023-02-08T14:57:52;5.90;;;3.63;;
11877;SDS011;5998;42.676;23.268;2023-02-08T15:00:21;5.63;;;3.83;;
11877;SDS011;5998;42.676;23.268;2023-02-08T15:02:50;8.73;;;6.00;;
11877;SDS011;5998;42.676;23.268;2023-02-08T15:05:19;7.53;;;5.00;;
11877;SDS011;5998;42.676;23.268;2023-02-08T15:07:50;5.27;;;3.60;;
11877;SDS011;5998;42.676;23.268;2023-02-08T15:10:19;7.17;;;4.27;;
11877;SDS011;5998;42.676;23.268;2023-02-08T15:12:49;9.57;;;5.73;;
11877;SDS011;5998;42.676;23.268;2023-02-08T15:15:24;11.77;;;7.20;;
11877;SDS011;5998;42.676;23.268;2023-02-08T15:17:53;11.00;;;6.97;;
11877;SDS011;5998;42.676;23.268;2023-02-08T15:20:21;10.10;;;5.67;;
11877;SDS011;5998;42.676;23.268;2023-02-08T15:22:57;9.50;;;6.07;;
11877;SDS011;5998;42.676;23.268;2023-02-08T15:25:26;15.70;;;6.80;;
11877;SDS011;5998;42.676;23.268;2023-02-08T15:27:55;7.53;;;4.90;;
11877;SDS011;5998;42.676;23.268;2023-02-08T15:30:26;5.17;;;3.40;;
11877;SDS011;5998;42.676;23.268;2023-02-08T15:32:55;8.40;;;5.53;;
11877;SDS011;5998;42.676;23.268;2023-02-08T15:35:23;6.03;;;4.93;;
11877;SDS011;5998;42.676;23.268;2023-02-08T15:37:51;5.10;;;4.43;;
11877;SDS011;5998;42.676;23.268;2023-02-08T15:43:08;5.57;;;2.57;;
11877;SDS011;5998;42.676;23.268;2023-02-08T15:45:38;3.93;;;2.23;;
11877;SDS011;5998;42.676;23.268;2023-02-08T15:48:05;6.80;;;4.67;;
11877;SDS011;5998;42.676;23.268;2023-02-08T15:50:32;2.43;;;2.20;;
11877;SDS011;5998;42.676;23.268;2023-02-08T15:53:01;3.90;;;2.87;;
11877;SDS011;5998;42.676;23.268;2023-02-08T15:55:32;8.10;;;5.03;;
11877;SDS011;5998;42.676;23.268;2023-02-08T15:58:03;4.43;;;2.90;;
11877;SDS011;5998;42.676;23.268;2023-02-08T16:00:34;6.97;;;4.77;;
11877;SDS011;5998;42.676;23.268;2023-02-08T16:03:03;8.17;;;4.07;;
11877;SDS011;5998;42.676;23.268;2023-02-08T16:05:33;7.27;;;4.07;;
11877;SDS011;5998;42.676;23.268;2023-02-08T16:08:01;3.40;;;2.30;;
11877;SDS011;5998;42.676;23.268;2023-02-08T16:10:30;7.83;;;5.00;;
11877;SDS011;5998;42.676;23.268;2023-02-08T16:13:01;7.60;;;4.43;;
11877;SDS011;5998;42.676;23.268;2023-02-08T16:15:39;9.67;;;5.40;;
11877;SDS011;5998;42.676;23.268;2023-02-08T16:18:29;5.47;;;3.90;;
11877;SDS011;5998;42.676;23.268;2023-02-08T16:21:04;5.50;;;4.57;;
11877;SDS011;5998;42.676;23.268;2023-02-08T16:23:47;7.00;;;4.40;;
11877;SDS011;5998;42.676;23.268;2023-02-08T16:26:18;8.40;;;3.50;;
11877;SDS011;5998;42.676;23.268;2023-02-08T16:28:51;7.70;;;5.07;;
11877;SDS011;5998;42.676;23.268;2023-02-08T16:31:21;7.73;;;4.60;;
11877;SDS011;5998;42.676;23.268;2023-02-08T16:33:57;8.93;;;5.73;;
11877;SDS011;5998;42.676;23.268;2023-02-08T16:36:27;6.43;;;5.03;;
11877;SDS011;5998;42.676;23.268;2023-02-08T16:39:19;15.43;;;6.27;;
11877;SDS011;5998;42.676;23.268;2023-02-08T16:42:25;8.97;;;5.83;;
11877;SDS011;5998;42.676;23.268;2023-02-08T16:44:56;13.00;;;6.60;;
11877;SDS011;5998;42.676;23.268;2023-02-08T16:47:26;6.03;;;4.67;;
11877;SDS011;5998;42.676;23.268;2023-02-08T16:49:59;12.13;;;6.97;;
11877;SDS011;5998;42.676;23.268;2023-02-08T16:52:26;7.23;;;5.13;;
11877;SDS011;5998;42.676;23.268;2023-02-08T16:54:53;10.57;;;5.73;;
11877;SDS011;5998;42.676;23.268;2023-02-08T16:57:19;8.57;;;5.20;;
11877;SDS011;5998;42.676;23.268;2023-02-08T16:59:48;10.90;;;6.60;;
11877;SDS011;5998;42.676;23.268;2023-02-08T17:02:15;9.10;;;5.60;;
11877;SDS011;5998;42.676;23.268;2023-02-08T17:04:42;7.17;;;5.33;;
11877;SDS011;5998;42.676;23.268;2023-02-08T17:07:09;2.93;;;2.23;;
11877;SDS011;5998;42.676;23.268;2023-02-08T17:09:42;7.10;;;3.50;;
11877;SDS011;5998;42.676;23.268;2023-02-08T17:12:09;7.33;;;4.73;;
11877;SDS011;5998;42.676;23.268;2023-02-08T17:14:36;4.77;;;3.30;;
11877;SDS011;5998;42.676;23.268;2023-02-08T17:17:04;7.97;;;5.37;;
11877;SDS011;5998;42.676;23.268;2023-02-08T17:19:31;11.83;;;6.23;;
11877;SDS011;5998;42.676;23.268;2023-02-08T17:21:57;5.63;;;3.17;;
11877;SDS011;5998;42.676;23.268;2023-02-08T17:24:26;9.43;;;5.47;;
11877;SDS011;5998;42.676;23.268;2023-02-08T17:26:52;5.83;;;4.40;;
11877;SDS011;5998;42.676;23.268;2023-02-08T17:29:19;7.87;;;5.33;;
11877;SDS011;5998;42.676;23.268;2023-02-08T17:31:46;3.20;;;1.87;;
11877;SDS011;5998;42.676;23.268;2023-02-08T17:34:14;4.77;;;3.67;;
11877;SDS011;5998;42.676;23.268;2023-02-08T17:36:41;8.10;;;5.27;;
11877;SDS011;5998;42.676;23.268;2023-02-08T17:39:08;9.23;;;5.40;;
11877;SDS011;5998;42.676;23.268;2023-02-08T17:41:35;4.33;;;2.90;;
11877;SDS011;5998;42.676;23.268;2023-02-08T17:44:02;3.33;;;3.03;;
11877;SDS011;5998;42.676;23.268;2023-02-08T17:46:30;8.10;;;5.80;;
11877;SDS011;5998;42.676;23.268;2023-02-08T17:48:56;8.83;;;5.57;;
11877;SDS011;5998;42.676;23.268;2023-02-08T17:51:26;11.40;;;6.93;;
11877;SDS011;5998;42.676;23.268;2023-02-08T17:53:53;10.90;;;7.10;;
11877;SDS011;5998;42.676;23.268;2023-02-08T17:56:21;13.40;;;6.87;;
11877;SDS011;5998;42.676;23.268;2023-02-08T17:58:49;10.97;;;6.97;;
11877;SDS011;5998;42.676;23.268;2023-02-08T18:01:17;15.10;;;7.17;;
11877;SDS011;5998;42.676;23.268;2023-02-08T18:03:47;9.17;;;5.47;;
11877;SDS011;5998;42.676;23.268;2023-02-08T18:06:14;7.37;;;4.17;;
11877;SDS011;5998;42.676;23.268;2023-02-08T18:08:43;7.63;;;4.87;;
11877;SDS011;5998;42.676;23.268;2023-02-08T18:11:10;11.07;;;7.17;;
11877;SDS011;5998;42.676;23.268;2023-02-08T18:13:40;10.60;;;6.73;;
11877;SDS011;5998;42.676;23.268;2023-02-08T18:16:07;10.43;;;6.07;;
11877;SDS011;5998;42.676;23.268;2023-02-08T18:18:35;12.97;;;7.60;;
11877;SDS011;5998;42.676;23.268;2023-02-08T18:21:07;11.33;;;6.40;;
11877;SDS011;5998;42.676;23.268;2023-02-08T18:23:34;13.03;;;6.73;;
11877;SDS011;5998;42.676;23.268;2023-02-08T18:26:03;7.07;;;5.37;;
11877;SDS011;5998;42.676;23.268;2023-02-08T18:28:31;9.53;;;6.03;;
11877;SDS011;5998;42.676;23.268;2023-02-08T18:31:01;15.20;;;7.43;;
11877;SDS011;5998;42.676;23.268;2023-02-08T18:33:28;15.13;;;8.07;;
11877;SDS011;5998;42.676;23.268;2023-02-08T18:35:55;5.37;;;3.60;;
11877;SDS011;5998;42.676;23.268;2023-02-08T18:38:22;9.97;;;6.87;;
11877;SDS011;5998;42.676;23.268;2023-02-08T18:40:48;11.93;;;6.03;;
11877;SDS011;5998;42.676;23.268;2023-02-08T18:43:16;15.13;;;6.83;;
11877;SDS011;5998;42.676;23.268;2023-02-08T18:45:44;11.03;;;6.33;;
11877;SDS011;5998;42.676;23.268;2023-02-08T18:48:11;14.53;;;9.00;;
11877;SDS011;5998;42.676;23.268;2023-02-08T18:50:38;15.17;;;8.13;;
11877;SDS011;5998;42.676;23.268;2023-02-08T18:53:05;18.57;;;9.00;;
11877;SDS011;5998;42.676;23.268;2023-02-08T18:55:32;17.93;;;6.80;;
11877;SDS011;5998;42.676;23.268;2023-02-08T18:57:58;18.70;;;9.03;;
11877;SDS011;5998;42.676;23.268;2023-02-08T19:00:26;15.10;;;7.87;;
11877;SDS011;5998;42.676;23.268;2023-02-08T19:02:53;12.90;;;7.87;;
11877;SDS011;5998;42.676;23.268;2023-02-08T19:05:20;9.67;;;6.60;;
11877;SDS011;5998;42.676;23.268;2023-02-08T19:07:46;12.57;;;7.33;;
11877;SDS011;5998;42.676;23.268;2023-02-08T19:10:13;10.60;;;7.13;;
11877;SDS011;5998;42.676;23.268;2023-02-08T19:12:40;17.53;;;8.90;;
11877;SDS011;5998;42.676;23.268;2023-02-08T19:15:07;16.47;;;8.90;;
11877;SDS011;5998;42.676;23.268;2023-02-08T19:17:35;15.30;;;7.97;;
11877;SDS011;5998;42.676;23.268;2023-02-08T19:20:02;16.93;;;7.63;;
11877;SDS011;5998;42.676;23.268;2023-02-08T19:22:29;16.40;;;8.43;;
11877;SDS011;5998;42.676;23.268;2023-02-08T19:24:56;12.87;;;7.67;;
11877;SDS011;5998;42.676;23.268;2023-02-08T19:27:23;12.57;;;6.50;;
11877;SDS011;5998;42.676;23.268;2023-02-08T19:29:50;20.87;;;9.43;;
11877;SDS011;5998;42.676;23.268;2023-02-08T19:32:20;21.43;;;9.50;;
11877;SDS011;5998;42.676;23.268;2023-02-08T19:34:48;19.10;;;8.83;;
11877;SDS011;5998;42.676;23.268;2023-02-08T19:37:15;17.47;;;9.90;;
11877;SDS011;5998;42.676;23.268;2023-02-08T19:39:41;23.93;;;10.73;;
11877;SDS011;5998;42.676;23.268;2023-02-08T19:42:08;17.80;;;10.30;;
11877;SDS011;5998;42.676;23.268;2023-02-08T19:44:35;14.90;;;9.23;;
11877;SDS011;5998;42.676;23.268;2023-02-08T19:47:01;12.57;;;7.37;;
11877;SDS011;5998;42.676;23.268;2023-02-08T19:49:28;16.40;;;8.87;;
11877;SDS011;5998;42.676;23.268;2023-02-08T19:51:56;17.37;;;10.07;;
11877;SDS011;5998;42.676;23.268;2023-02-08T19:54:23;18.63;;;10.33;;
11877;SDS011;5998;42.676;23.268;2023-02-08T19:56:50;17.03;;;10.83;;
11877;SDS011;5998;42.676;23.268;2023-02-08T19:59:19;21.97;;;11.40;;
11877;SDS011;5998;42.676;23.268;2023-02-08T20:01:47;20.20;;;11.23;;
11877;SDS011;5998;42.676;23.268;2023-02-08T20:04:14;17.97;;;11.97;;
11877;SDS011;5998;42.676;23.268;2023-02-08T20:06:41;20.17;;;12.77;;
11877;SDS011;5998;42.676;23.268;2023-02-08T20:09:10;27.03;;;14.50;;
11877;SDS011;5998;42.676;23.268;2023-02-08T20:11:38;37.90;;;20.50;;
11877;SDS011;5998;42.676;23.268;2023-02-08T20:14:06;34.70;;;16.07;;
11877;SDS011;5998;42.676;23.268;2023-02-08T20:16:33;36.63;;;17.20;;
11877;SDS011;5998;42.676;23.268;2023-02-08T20:19:00;43.17;;;19.83;;
11877;SDS011;5998;42.676;23.268;2023-02-08T20:21:27;44.47;;;22.80;;
11877;SDS011;5998;42.676;23.268;2023-02-08T20:23:54;40.20;;;20.20;;
11877;SDS011;5998;42.676;23.268;2023-02-08T20:26:23;44.90;;;23.83;;
11877;SDS011;5998;42.676;23.268;2023-02-08T20:28:52;39.83;;;20.87;;
11877;SDS011;5998;42.676;23.268;2023-02-08T20:31:21;42.63;;;20.80;;
11877;SDS011;5998;42.676;23.268;2023-02-08T20:33:49;43.43;;;21.43;;
11877;SDS011;5998;42.676;23.268;2023-02-08T20:36:17;45.87;;;22.70;;
11877;SDS011;5998;42.676;23.268;2023-02-08T20:38:46;41.23;;;20.70;;
11877;SDS011;5998;42.676;23.268;2023-02-08T20:41:13;50.97;;;23.97;;
11877;SDS011;5998;42.676;23.268;2023-02-08T20:43:43;39.20;;;20.40;;
11877;SDS011;5998;42.676;23.268;2023-02-08T20:46:12;46.87;;;23.37;;
11877;SDS011;5998;42.676;23.268;2023-02-08T20:48:40;42.97;;;21.33;;
11877;SDS011;5998;42.676;23.268;2023-02-08T20:51:08;40.40;;;21.30;;
11877;SDS011;5998;42.676;23.268;2023-02-08T20:53:36;43.53;;;22.13;;
11877;SDS011;5998;42.676;23.268;2023-02-08T20:56:04;43.73;;;21.63;;
11877;SDS011;5998;42.676;23.268;2023-02-08T20:58:31;45.33;;;20.83;;
11877;SDS011;5998;42.676;23.268;2023-02-08T21:00:59;42.47;;;21.83;;
11877;SDS011;5998;42.676;23.268;2023-02-08T21:03:26;38.87;;;22.33;;
11877;SDS011;5998;42.676;23.268;2023-02-08T21:05:53;40.83;;;22.40;;
11877;SDS011;5998;42.676;23.268;2023-02-08T21:08:20;43.00;;;23.20;;
11877;SDS011;5998;42.676;23.268;2023-02-08T21:10:46;42.67;;;23.50;;
11877;SDS011;5998;42.676;23.268;2023-02-08T21:13:13;41.60;;;23.80;;
11877;SDS011;5998;42.676;23.268;2023-02-08T21:15:40;46.20;;;24.93;;
11877;SDS011;5998;42.676;23.268;2023-02-08T21:18:09;50.47;;;24.93;;
11877;SDS011;5998;42.676;23.268;2023-02-08T21:20:36;44.90;;;25.07;;
11877;SDS011;5998;42.676;23.268;2023-02-08T21:23:04;45.60;;;26.57;;
11877;SDS011;5998;42.676;23.268;2023-02-08T21:25:30;45.00;;;25.27;;
11877;SDS011;5998;42.676;23.268;2023-02-08T21:27:57;44.00;;;24.43;;
11877;SDS011;5998;42.676;23.268;2023-02-08T21:30:24;43.97;;;25.70;;
11877;SDS011;5998;42.676;23.268;2023-02-08T21:32:51;41.57;;;23.10;;
11877;SDS011;5998;42.676;23.268;2023-02-08T21:35:19;41.50;;;24.80;;
11877;SDS011;5998;42.676;23.268;2023-02-08T21:37:45;39.97;;;23.90;;
11877;SDS011;5998;42.676;23.268;2023-02-08T21:40:12;40.80;;;21.60;;
11877;SDS011;5998;42.676;23.268;2023-02-08T21:42:39;67.30;;;23.53;;
11877;SDS011;5998;42.676;23.268;2023-02-08T21:45:06;365.37;;;39.80;;
11877;SDS011;5998;42.676;23.268;2023-02-08T21:47:33;36.73;;;19.23;;
11877;SDS011;5998;42.676;23.268;2023-02-08T21:49:59;30.03;;;17.80;;
11877;SDS011;5998;42.676;23.268;2023-02-08T21:52:45;73.07;;;20.47;;
11877;SDS011;5998;42.676;23.268;2023-02-08T21:55:29;30.70;;;19.60;;
11877;SDS011;5998;42.676;23.268;2023-02-08T21:57:56;33.50;;;19.37;;
11877;SDS011;5998;42.676;23.268;2023-02-08T22:00:22;33.43;;;17.90;;
11877;SDS011;5998;42.676;23.268;2023-02-08T22:02:49;29.57;;;17.27;;
11877;SDS011;5998;42.676;23.268;2023-02-08T22:05:16;61.67;;;18.50;;
11877;SDS011;5998;42.676;23.268;2023-02-08T22:07:43;30.73;;;16.23;;
11877;SDS011;5998;42.676;23.268;2023-02-08T22:10:14;27.93;;;15.40;;
11877;SDS011;5998;42.676;23.268;2023-02-08T22:12:42;28.83;;;16.40;;
11877;SDS011;5998;42.676;23.268;2023-02-08T22:15:09;30.00;;;17.70;;
11877;SDS011;5998;42.676;23.268;2023-02-08T22:17:37;34.93;;;19.17;;
11877;SDS011;5998;42.676;23.268;2023-02-08T22:20:04;47.47;;;21.83;;
11877;SDS011;5998;42.676;23.268;2023-02-08T22:22:32;33.17;;;19.83;;
11877;SDS011;5998;42.676;23.268;2023-02-08T22:25:00;38.47;;;21.03;;
11877;SDS011;5998;42.676;23.268;2023-02-08T22:27:27;31.20;;;19.00;;
11877;SDS011;5998;42.676;23.268;2023-02-08T22:29:53;35.30;;;18.53;;
11877;SDS011;5998;42.676;23.268;2023-02-08T22:32:20;31.40;;;17.83;;
11877;SDS011;5998;42.676;23.268;2023-02-08T22:34:47;35.43;;;18.93;;
11877;SDS011;5998;42.676;23.268;2023-02-08T22:37:14;32.57;;;18.33;;
11877;SDS011;5998;42.676;23.268;2023-02-08T22:39:41;33.03;;;17.13;;
11877;SDS011;5998;42.676;23.268;2023-02-08T22:42:09;34.50;;;18.70;;
11877;SDS011;5998;42.676;23.268;2023-02-08T22:44:39;28.00;;;17.07;;
11877;SDS011;5998;42.676;23.268;2023-02-08T22:47:08;35.90;;;19.10;;
11877;SDS011;5998;42.676;23.268;2023-02-08T22:49:36;35.53;;;19.03;;
11877;SDS011;5998;42.676;23.268;2023-02-08T22:52:03;34.33;;;18.53;;
11877;SDS011;5998;42.676;23.268;2023-02-08T22:54:30;44.90;;;17.93;;
11877;SDS011;5998;42.676;23.268;2023-02-08T22:56:57;29.73;;;17.10;;
11877;SDS011;5998;42.676;23.268;2023-02-08T22:59:25;43.50;;;18.07;;
11877;SDS011;5998;42.676;23.268;2023-02-08T23:01:52;31.73;;;17.67;;
11877;SDS011;5998;42.676;23.268;2023-02-08T23:04:19;61.50;;;19.90;;
11877;SDS011;5998;42.676;23.268;2023-02-08T23:06:46;33.27;;;18.27;;
11877;SDS011;5998;42.676;23.268;2023-02-08T23:09:13;33.07;;;17.00;;
11877;SDS011;5998;42.676;23.268;2023-02-08T23:11:40;64.67;;;17.93;;
11877;SDS011;5998;42.676;23.268;2023-02-08T23:14:07;80.77;;;19.37;;
11877;SDS011;5998;42.676;23.268;2023-02-08T23:16:35;32.03;;;16.93;;
11877;SDS011;5998;42.676;23.268;2023-02-08T23:19:02;27.37;;;14.53;;
11877;SDS011;5998;42.676;23.268;2023-02-08T23:21:29;32.87;;;16.90;;
11877;SDS011;5998;42.676;23.268;2023-02-08T23:23:55;30.03;;;16.50;;
11877;SDS011;5998;42.676;23.268;2023-02-08T23:26:22;37.87;;;14.63;;
11877;SDS011;5998;42.676;23.268;2023-02-08T23:28:50;30.57;;;16.33;;
11877;SDS011;5998;42.676;23.268;2023-02-08T23:31:18;29.63;;;16.13;;
11877;SDS011;5998;42.676;23.268;2023-02-08T23:33:47;33.10;;;18.00;;
11877;SDS011;5998;42.676;23.268;2023-02-08T23:36:15;34.13;;;19.13;;
11877;SDS011;5998;42.676;23.268;2023-02-08T23:38:43;35.60;;;17.93;;
11877;SDS011;5998;42.676;23.268;2023-02-08T23:41:11;47.83;;;23.97;;
11877;SDS011;5998;42.676;23.268;2023-02-08T23:43:39;38.03;;;19.63;;